Wisconsin Dells, Wisconsin
Current Conditions -  °F | °C
As of 10:15 AM on Wednesday 26 Nov 2014 (Local Time) from KDLL Reporting Station
Haze Haze  
Wind Chill: 18°   Ceiling: Unl
Heat Index: 18°   Visibility: 5mi
Dew Point: 16°   Wind: 3mph
Humidity: 94%   Direction: 30°NNE
Pressure: 30.13"   Gusts: NA
Location:  43.63°N, 89.77°W
Report Text: KDLL 261615Z AUTO 03003KT 5SM BR CLR M08/M09 A3013 RMK AO2 T10791087
Loading
Personal Weather Stations






























Interactive Weather Map New forecast layout! Learn more

10-Day Weather Forecast

Advertisements
Track Severe Weather on mobile